Treaty Line Museum, Indiana
Current Conditions -  °F | °C
As of 9:15 PM on Saturday 25 Oct 2014 (Local Time) from KI67 Reporting Station
Clear Clear  
Wind Chill: 64°   Ceiling: Unl
Heat Index: 64°   Visibility: 10mi
Dew Point: 50°   Wind: 3mph
Humidity: 59%   Direction: 260°W
Pressure: 29.9"   Gusts: NA
Location:  39.6086°N, 84.9137°W
Report Text: KI67 260115Z AUTO 26003KT 10SM CLR 18/10 A2990 RMK AO1
Loading
Personal Weather Stations






























Interactive Weather Map
Tropical Storm Tracking
New forecast layout! Learn more

10-Day Weather Forecast

Advertisements
Track Severe Weather on mobile